Кадала

Карта отелей и гостиниц, располагающихся рядом с аэропортом Кадала :

Кадала
Чита
Забайкальский край 52° 1' 34.4388" N, 113° 18' 18.36" E
Код аэродрома ИКАО
UIAA
Код аэродрома RU
УИАА
Координаты
N52.02623° E113.30510°
Превышение над уровнем моря
683
Основная полоса
11/29
Курс магнитный
109/289
Длина основной ВПП
2800
Ширина основной ВПП
58
Покрытие основной ВПП
Твёрдое (бетон)
Освещение ВПП
Постоянное
Тип: 
Аэродром
Класс аэродрома: 
Международный
Принадлежность: 
ГА
Статус: 
Действующий
Страна: 
Россия
Регион: 
Забайкальский край
Город: 
Чита
Дополнительная информация: 
Центральный краевой аэропорт. Горный. Военный индекс: XIAA / ЬИАА.
Схемы аэропортов: 
Погода: 

Авиационная погода в Кадале

Регион: 
Погода METAR: 
UIAA 282200Z 00000MPS 9999 NSC 16/14 Q1006 R29/70D NOSIG RMK QFE696/0929
Время наблюдения
2022-06-28T22:00:00Z
Температура C
16.0
Точка росы
14.0
Направление ветра
0
Скорость ветра (узлы)
0
Метео видимость
6.21
Облачность
CLR
Нижняя граница облачности (футы)
Явления погоды
Условия полета
VFR
Аэропорт подробнее: 
CLR — нет облаков ниже 3000 м

Найти трансфер

С помощью этой формы Вы можете найти трансфер из аэропорта Кадала в город, аэропорт или вокзал:

Погода в аэропортах:

Авиационная погода в Новокузнецке

Регион: 
Погода METAR: 
UNWW 282200Z 10001MPS 6000 0200S FG NSC 10/10 Q1008 R19/09//60 NOSIG RMK QFE729
Время наблюдения
2022-06-28T22:00:00Z
Температура C
10.0
Точка росы
10.0
Направление ветра
100
Скорость ветра (узлы)
2
Метео видимость
3.73
Облачность
CLR
Нижняя граница облачности (футы)
Явления погоды
FG
Условия полета
MVFR
Аэропорт подробнее: 
CLR — нет облаков ниже 3000 м
FG – туман (небо не видно, температура воздуха выше нуля или ноль);

Авиационная погода в Игнатьево

Регион: 
Погода METAR: 
UHBB 282200Z 35002MPS 0150 0100W R36/M0200N FG VV002 18/18 Q1003 R36/090060 NOSIG RMK QBB060 QFE735/0980
Время наблюдения
2022-06-28T22:00:00Z
Температура C
18.0
Точка росы
18.0
Направление ветра
350
Скорость ветра (узлы)
4
Метео видимость
0.09
Облачность
OVX
Нижняя граница облачности (футы)
0
Явления погоды
FG
Условия полета
LIFR
Аэропорт подробнее: 
FG – туман (небо не видно, температура воздуха выше нуля или ноль);

Авиационная погода в Гродно

Регион: 
Погода METAR: 
UMMG 300400Z 03002MPS 5000 BR NSC 19/18 Q1015 NOSIG
Время наблюдения
2022-06-30T04:00:00Z
Температура C
19.0
Точка росы
18.0
Направление ветра
30
Скорость ветра (узлы)
4
Метео видимость
3.11
Облачность
CLR
Нижняя граница облачности (футы)
Явления погоды
BR
Условия полета
MVFR
Аэропорт подробнее: 
CLR — нет облаков ниже 3000 м
BR – дымка (видимость от 1 до 9 км);

Авиационная погода в Сургуте

Регион: 
Погода METAR: 
USRR 300330Z 02007MPS 350V050 9000 -SHRA SCT009 BKN018CB 10/09 Q0993 R07/290245 NOSIG RMK OBST OBSC QFE740
Время наблюдения
2022-06-30T03:30:00Z
Температура C
10.0
Точка росы
9.0
Направление ветра
20
Скорость ветра (узлы)
14
Метео видимость
5.59
Облачность
SCT
BKN
Нижняя граница облачности (футы)
900
1800
Явления погоды
-SHRA
Условия полета
MVFR
Аэропорт подробнее: 
SCT – разбросанная отдельная облачность; BKN – значительная (рассеянная, разорванная) облачность;
-SHRA - слабый ливневой дождь;